Time;durP1;ratioP1;P1;durP2;ratioP2;P2;SDS_P1;SDS_P2;PMS_P1;PMS_P2;Temp;Humidity;BMP_temperature;BMP_pressure;BME280_temperature;BME280_humidity;BME280_pressure;Samples;Min_cycle;Max_cycle;Signal;HPM_P1;HPM_P2
2022/04/08 00:02:08;;;;;;;5.30;1.50;;;;;;;9.68;58.81;98946.81;5097728;27;20565;-81
2022/04/08 00:04:33;;;;;;;5.70;1.67;;;;;;;9.71;58.87;98950.91;5106537;28;20397;-81
2022/04/08 00:07:00;;;;;;;4.80;1.50;;;;;;;9.70;58.58;98944.69;5105997;28;20433;-81
2022/04/08 00:09:25;;;;;;;4.57;1.40;;;;;;;9.68;58.91;98941.41;5113335;28;20405;-81
2022/04/08 00:11:51;;;;;;;7.67;2.00;;;;;;;9.74;59.30;98951.16;5111316;28;20439;-80
2022/04/08 00:14:18;;;;;;;5.17;1.40;;;;;;;9.68;59.83;98956.88;5100943;28;20398;-81
2022/04/08 00:16:44;;;;;;;7.50;1.65;;;;;;;9.64;59.83;98951.19;5102295;28;20399;-81
2022/04/08 00:19:09;;;;;;;4.97;1.80;;;;;;;9.56;60.24;98946.34;5110230;27;20448;-81
2022/04/08 00:21:35;;;;;;;6.87;2.00;;;;;;;9.46;60.21;98949.06;5113136;28;20479;-81
2022/04/08 00:24:00;;;;;;;6.72;1.60;;;;;;;9.48;60.53;98965.84;5100328;28;20387;-81
2022/04/08 00:26:26;;;;;;;7.03;1.40;;;;;;;9.45;60.81;98960.97;5105346;28;20390;-80
2022/04/08 00:28:51;;;;;;;7.93;1.60;;;;;;;9.40;60.74;98974.50;5108937;28;20401;-81
2022/04/08 00:31:16;;;;;;;7.23;1.57;;;;;;;9.39;60.87;98970.97;5114410;28;20445;-81
2022/04/08 00:33:41;;;;;;;5.80;1.42;;;;;;;9.36;60.21;98984.22;5098787;28;20862;-81
2022/04/08 00:36:07;;;;;;;6.33;1.50;;;;;;;9.39;60.55;98981.78;5113890;28;20392;-81
2022/04/08 00:38:32;;;;;;;8.30;2.00;;;;;;;9.50;59.80;98984.47;5114768;28;20388;-81
2022/04/08 00:40:58;;;;;;;9.57;1.98;;;;;;;9.59;60.31;98989.06;5113580;27;20404;-81
2022/04/08 00:43:37;;;;;;;6.13;1.97;;;;;;;9.64;60.28;98988.25;5096830;28;20420;-80
2022/04/08 00:46:05;;;;;;;8.10;1.60;;;;;;;9.59;60.62;98990.94;5103381;28;20388;-80
2022/04/08 00:48:31;;;;;;;6.80;1.90;;;;;;;9.65;60.65;98987.16;5109933;28;20447;-81
2022/04/08 00:50:57;;;;;;;7.17;1.90;;;;;;;9.69;60.50;98993.63;5111998;27;20403;-81
2022/04/08 00:53:23;;;;;;;7.03;1.70;;;;;;;9.69;60.47;99002.56;5111073;28;20397;-80
2022/04/08 00:55:49;;;;;;;7.07;1.60;;;;;;;9.67;60.64;98998.50;5106070;28;20496;-81
2022/04/08 00:58:15;;;;;;;5.70;1.87;;;;;;;9.63;60.68;99002.84;5106345;28;20487;-80
2022/04/08 01:00:42;;;;;;;8.25;1.77;;;;;;;9.54;60.91;99002.59;5111487;28;20393;-81
2022/04/08 01:03:07;;;;;;;5.18;1.25;;;;;;;9.48;60.32;99005.59;5112888;28;20465;-81
2022/04/08 01:05:33;;;;;;;8.70;1.90;;;;;;;9.44;60.63;99005.31;5106186;28;20379;-80
2022/04/08 01:08:03;;;;;;;7.37;1.60;;;;;;;9.41;60.76;98995.06;5105378;28;20395;-81
2022/04/08 01:10:28;;;;;;;4.07;1.65;;;;;;;9.49;60.67;99007.19;5097930;27;20411;-80
2022/04/08 01:12:54;;;;;;;7.05;1.80;;;;;;;9.45;60.74;99001.50;5108528;28;20404;-81
2022/04/08 01:15:21;;;;;;;10.03;2.67;;;;;;;9.42;60.71;99002.06;5106704;28;20425;-81
2022/04/08 01:17:47;;;;;;;5.55;2.20;;;;;;;9.51;60.72;99005.03;5104817;28;20387;-80
2022/04/08 01:20:13;;;;;;;6.80;1.42;;;;;;;9.48;60.46;99003.69;5112085;28;20397;-81
2022/04/08 01:22:38;;;;;;;8.98;1.75;;;;;;;9.48;60.72;99011.81;5094600;28;20500;-81
2022/04/08 01:25:05;;;;;;;7.38;1.70;;;;;;;9.51;60.82;99019.38;5099402;28;20465;-81
2022/04/08 01:27:31;;;;;;;8.10;2.22;;;;;;;9.46;60.89;99019.38;5103191;28;20497;-81
2022/04/08 01:29:56;;;;;;;8.50;1.50;;;;;;;9.53;60.52;99024.50;5107477;28;20930;-81
2022/04/08 01:32:22;;;;;;;7.40;1.40;;;;;;;9.47;60.76;99029.09;5110009;27;20400;-81
2022/04/08 01:34:49;;;;;;;6.13;1.40;;;;;;;9.49;60.86;99037.75;5093239;28;21022;-81
2022/04/08 01:37:15;;;;;;;6.32;1.80;;;;;;;9.59;60.32;99040.44;5099538;28;20733;-81
2022/04/08 01:39:41;;;;;;;5.37;1.47;;;;;;;9.65;60.57;99036.66;5110070;28;20507;-80
2022/04/08 01:42:07;;;;;;;4.55;1.42;;;;;;;9.57;60.66;99039.09;5111196;27;20930;-81
2022/04/08 01:44:32;;;;;;;9.68;1.98;;;;;;;9.51;61.12;99046.41;5091801;28;20402;-80
2022/04/08 01:46:58;;;;;;;6.23;1.73;;;;;;;9.49;61.01;99047.75;5101728;28;20392;-80
2022/04/08 01:49:23;;;;;;;7.80;1.60;;;;;;;9.47;61.49;99048.03;5106854;28;20801;-81
2022/04/08 01:51:48;;;;;;;7.30;2.03;;;;;;;9.47;61.16;99052.63;5108691;28;20444;-81
2022/04/08 01:54:13;;;;;;;6.07;1.47;;;;;;;9.45;61.07;99049.41;5093164;28;20386;-80
2022/04/08 01:56:38;;;;;;;4.67;1.33;;;;;;;9.48;61.79;99052.38;5100227;28;20411;-81
2022/04/08 01:59:04;;;;;;;5.70;1.55;;;;;;;9.49;61.13;99055.88;5106501;28;20457;-81
2022/04/08 02:01:29;;;;;;;3.87;1.20;;;;;;;9.39;61.44;99053.97;5110291;28;20407;-81
2022/04/08 02:03:55;;;;;;;4.80;1.50;;;;;;;9.35;62.23;99048.31;5099272;27;20465;-80
2022/04/08 02:06:20;;;;;;;5.63;1.30;;;;;;;9.27;62.20;99042.63;5105496;28;20422;-80
2022/04/08 02:08:45;;;;;;;4.87;1.43;;;;;;;9.25;61.74;99050.22;5101005;28;20380;-81
2022/04/08 02:11:11;;;;;;;5.30;1.37;;;;;;;9.27;61.82;99050.75;5099303;28;20409;-80
2022/04/08 02:13:36;;;;;;;8.60;2.00;;;;;;;9.22;61.57;99059.66;5099681;28;20477;-80
2022/04/08 02:16:03;;;;;;;7.82;1.42;;;;;;;9.19;62.05;99052.09;5108315;27;20400;-80
2022/04/08 02:18:29;;;;;;;7.20;1.73;;;;;;;9.14;62.05;99056.69;5101680;28;20746;-81
2022/04/08 02:20:54;;;;;;;5.53;1.35;;;;;;;9.16;61.96;99060.75;5092390;28;20394;-80
2022/04/08 02:23:19;;;;;;;5.90;1.43;;;;;;;9.21;61.69;99076.16;5108860;28;20408;-80
2022/04/08 02:25:46;;;;;;;5.70;1.48;;;;;;;9.18;61.83;99064.00;5096433;28;20455;-81
2022/04/08 02:28:12;;;;;;;5.80;1.52;;;;;;;9.17;61.11;99078.59;5108808;28;20412;-80
2022/04/08 02:30:37;;;;;;;6.00;1.50;;;;;;;9.10;61.70;99083.44;5101398;28;20456;-80
2022/04/08 02:33:04;;;;;;;4.67;1.13;;;;;;;9.10;61.54;99078.03;5107861;28;20380;-80
2022/04/08 02:35:30;;;;;;;4.47;1.73;;;;;;;9.17;61.73;99088.56;5094727;28;20384;-80
2022/04/08 02:37:55;;;;;;;4.28;1.48;;;;;;;9.18;61.75;99091.03;5102959;28;20459;-81
2022/04/08 02:40:21;;;;;;;7.97;1.70;;;;;;;9.17;61.49;99094.81;5096028;27;20483;-80
2022/04/08 02:42:46;;;;;;;6.33;1.47;;;;;;;9.23;61.91;99098.31;5096773;28;20500;-80
2022/04/08 02:45:11;;;;;;;7.87;2.40;;;;;;;9.15;62.17;99098.84;5109320;28;20408;-81
2022/04/08 02:47:43;;;;;;;8.53;1.57;;;;;;;9.12;61.96;99104.81;5101007;28;20472;-81
2022/04/08 02:50:09;;;;;;;10.40;2.03;;;;;;;9.12;62.11;99100.19;5101462;28;20386;-80
2022/04/08 02:52:35;;;;;;;7.80;1.75;;;;;;;9.15;61.36;99104.25;5105811;28;20804;-80
2022/04/08 02:55:00;;;;;;;6.72;1.45;;;;;;;9.06;61.96;99101.25;5092586;28;20397;-80
2022/04/08 02:57:26;;;;;;;6.27;1.70;;;;;;;9.04;61.83;99102.63;5096324;28;20396;-80
2022/04/08 02:59:53;;;;;;;5.47;1.27;;;;;;;8.92;62.39;99107.47;5102472;28;20467;-80
2022/04/08 03:02:21;;;;;;;7.65;2.03;;;;;;;8.97;61.95;99116.38;5105347;28;20408;-81
2022/04/08 03:04:46;;;;;;;8.15;2.08;;;;;;;9.01;61.46;99113.97;5107336;28;20409;-80
2022/04/08 03:07:11;;;;;;;5.63;1.73;;;;;;;8.91;61.80;99113.94;5096088;28;20398;-80
2022/04/08 03:09:37;;;;;;;7.23;1.67;;;;;;;8.94;61.23;99118.81;5107931;28;20400;-81
2022/04/08 03:12:05;;;;;;;7.27;1.83;;;;;;;8.96;61.03;99127.47;5102483;28;20412;-81
2022/04/08 03:14:33;;;;;;;5.95;1.60;;;;;;;8.93;61.57;99136.09;5101978;28;20404;-80
2022/04/08 03:16:59;;;;;;;6.97;1.90;;;;;;;8.94;61.55;99126.91;5098737;28;20406;-80
2022/04/08 03:19:24;;;;;;;8.47;2.03;;;;;;;8.88;61.17;99133.38;5090306;28;20377;-80
2022/04/08 03:21:49;;;;;;;6.60;1.83;;;;;;;8.95;61.23;99142.06;5104017;28;20978;-80
2022/04/08 03:24:15;;;;;;;10.17;2.70;;;;;;;9.04;61.11;99138.56;5094739;28;20459;-80
2022/04/08 03:26:40;;;;;;;7.63;2.53;;;;;;;8.99;60.90;99138.53;5107770;28;20417;-80
2022/04/08 03:29:06;;;;;;;8.23;1.97;;;;;;;9.04;60.84;99151.25;5103838;28;20402;-80
2022/04/08 03:31:31;;;;;;;8.60;2.13;;;;;;;9.00;60.47;99150.97;5095918;28;20394;-81
2022/04/08 03:33:56;;;;;;;7.53;1.57;;;;;;;8.98;59.69;99149.63;5102854;28;20417;-80
2022/04/08 03:36:22;;;;;;;8.27;1.83;;;;;;;9.05;59.60;99150.19;5100036;28;20491;-80
2022/04/08 03:38:47;;;;;;;6.63;1.80;;;;;;;9.05;59.98;99151.00;5111422;27;20404;-80
2022/04/08 03:41:13;;;;;;;7.80;1.67;;;;;;;9.01;60.77;99155.31;5105584;28;20749;-80
2022/04/08 03:43:38;;;;;;;6.55;1.42;;;;;;;9.01;59.62;99154.50;5109421;28;20549;-80
2022/04/08 03:46:03;;;;;;;7.23;1.80;;;;;;;9.03;59.82;99153.13;5098632;28;20398;-81
2022/04/08 03:48:29;;;;;;;9.87;2.40;;;;;;;8.98;59.93;99152.31;5108772;28;20450;-80
2022/04/08 03:50:54;;;;;;;8.40;1.90;;;;;;;9.06;59.32;99149.91;5105613;27;20401;-80
2022/04/08 03:53:20;;;;;;;7.30;2.07;;;;;;;9.11;59.59;99151.81;5097776;27;20414;-80
2022/04/08 03:55:46;;;;;;;6.03;2.10;;;;;;;9.16;59.98;99159.91;5099741;27;20424;-80
2022/04/08 03:58:11;;;;;;;9.13;2.10;;;;;;;9.22;59.85;99146.16;5115281;28;20400;-80
2022/04/08 04:00:38;;;;;;;8.75;2.20;;;;;;;9.21;59.71;99155.38;5107691;28;20748;-80
2022/04/08 04:03:03;;;;;;;11.52;2.30;;;;;;;9.24;59.74;99152.13;5103335;27;20963;-80
2022/04/08 04:05:29;;;;;;;14.37;2.87;;;;;;;9.24;59.23;99145.91;5104926;27;20501;-80
2022/04/08 04:07:56;;;;;;;7.03;1.83;;;;;;;9.20;58.89;99142.91;5109863;28;20474;-81
2022/04/08 04:10:21;;;;;;;7.57;1.83;;;;;;;9.20;59.45;99151.03;5098568;28;20411;-79
2022/04/08 04:12:46;;;;;;;10.23;1.63;;;;;;;9.20;60.58;99145.63;5103661;28;20378;-81
2022/04/08 04:15:13;;;;;;;7.47;1.60;;;;;;;9.19;60.12;99143.97;5110028;28;20440;-81
2022/04/08 04:17:39;;;;;;;6.40;1.70;;;;;;;9.20;59.96;99131.28;5104325;28;20392;-81
2022/04/08 04:20:05;;;;;;;4.13;1.20;;;;;;;9.16;60.76;99128.31;5095976;28;20763;-81
2022/04/08 04:22:30;;;;;;;6.50;1.73;;;;;;;9.14;60.08;99140.47;5109905;27;20415;-82
2022/04/08 04:24:55;;;;;;;7.78;1.95;;;;;;;9.09;60.34;99138.56;5101561;28;20496;-81
2022/04/08 04:27:20;;;;;;;6.90;1.70;;;;;;;9.08;59.54;99136.13;5107439;28;20420;-82
2022/04/08 04:29:46;;;;;;;5.97;1.20;;;;;;;8.98;60.33;99134.22;5099189;28;20388;-82
2022/04/08 04:32:11;;;;;;;5.37;1.30;;;;;;;9.01;60.46;99122.06;5098639;28;20409;-81
2022/04/08 04:34:38;;;;;;;7.25;1.83;;;;;;;9.01;59.99;99128.28;5102777;28;20415;-81
2022/04/08 04:37:04;;;;;;;9.23;1.92;;;;;;;9.06;59.66;99130.16;5103062;28;20396;-82
2022/04/08 04:39:30;;;;;;;5.63;1.88;;;;;;;9.10;59.67;99125.88;5097487;27;20405;-82
2022/04/08 04:41:55;;;;;;;5.00;1.98;;;;;;;9.12;60.16;99123.72;5105504;28;20411;-82
2022/04/08 04:44:20;;;;;;;6.03;1.50;;;;;;;9.10;60.20;99113.16;5106216;28;20384;-81
2022/04/08 04:46:45;;;;;;;8.30;2.00;;;;;;;9.07;60.30;99115.59;5111754;28;20504;-81
2022/04/08 04:49:11;;;;;;;5.50;1.37;;;;;;;9.06;61.21;99108.56;5095105;28;20386;-81
2022/04/08 04:51:36;;;;;;;7.53;1.75;;;;;;;9.06;61.08;99114.78;5101038;28;20735;-81
2022/04/08 04:54:01;;;;;;;6.80;1.60;;;;;;;9.09;61.06;99110.75;5100302;28;20406;-81
2022/04/08 04:56:27;;;;;;;7.82;1.45;;;;;;;8.98;61.22;99106.38;5100962;28;20396;-81
2022/04/08 04:58:52;;;;;;;5.60;1.80;;;;;;;8.93;61.59;99109.88;5112755;27;20393;-81
2022/04/08 05:01:27;;;;;;;9.23;1.90;;;;;;;8.96;61.49;99111.25;5093505;27;20410;-81
2022/04/08 05:03:52;;;;;;;8.57;2.13;;;;;;;8.99;61.55;99116.91;5108244;28;20405;-81
2022/04/08 05:06:17;;;;;;;8.73;1.70;;;;;;;9.04;61.31;99108.03;5102289;28;20400;-81
2022/04/08 05:08:42;;;;;;;4.30;1.30;;;;;;;9.00;61.26;99117.72;5112062;27;20426;-81
2022/04/08 05:11:08;;;;;;;8.83;1.73;;;;;;;9.01;61.77;99125.59;5103363;28;20763;-81
2022/04/08 05:13:33;;;;;;;6.60;1.60;;;;;;;8.98;61.99;99122.59;5106393;28;20495;-81
2022/04/08 05:15:58;;;;;;;6.83;1.87;;;;;;;8.98;62.02;99122.59;5102967;28;20876;-81
2022/04/08 05:18:23;;;;;;;7.57;2.70;;;;;;;8.97;62.03;99124.50;5100790;27;20415;-81
2022/04/08 05:20:52;;;;;;;7.30;2.07;;;;;;;8.92;62.23;99126.38;5097955;28;20924;-81
2022/04/08 05:23:18;;;;;;;7.50;1.98;;;;;;;8.99;62.60;99127.72;5104340;28;20409;-81
2022/04/08 05:25:43;;;;;;;8.27;1.70;;;;;;;8.98;63.58;99122.59;5111632;27;20748;-80
2022/04/08 05:28:11;;;;;;;9.63;2.10;;;;;;;8.96;63.00;99122.06;5118575;27;20501;-80
2022/04/08 05:30:37;;;;;;;5.65;1.60;;;;;;;8.94;62.49;99114.22;5098586;28;20414;-80
2022/04/08 05:33:02;;;;;;;8.03;1.90;;;;;;;8.96;63.18;99113.97;5102102;27;20881;-80
2022/04/08 05:35:28;;;;;;;7.63;1.60;;;;;;;8.89;63.50;99116.09;5099721;28;20421;-81
2022/04/08 05:37:53;;;;;;;8.13;2.27;;;;;;;8.97;63.06;99110.16;5110480;28;20411;-81
2022/04/08 05:40:21;;;;;;;6.33;1.90;;;;;;;8.94;62.91;99102.59;5088440;28;20826;-78
2022/04/08 05:42:50;;;;;;;5.50;1.48;;;;;;;9.00;62.15;99102.34;5106411;28;20898;-81
2022/04/08 05:45:18;;;;;;;7.80;1.95;;;;;;;9.09;62.51;99099.94;5105080;28;20407;-85
2022/04/08 05:47:47;;;;;;;7.93;1.40;;;;;;;9.17;62.54;99096.69;5107968;28;20435;-85
2022/04/08 05:50:13;;;;;;;7.43;1.67;;;;;;;9.21;62.98;99103.19;5109724;28;20386;-86
2022/04/08 05:52:39;;;;;;;4.53;1.40;;;;;;;9.29;62.34;99094.53;5097122;28;20506;-86
2022/04/08 05:55:05;;;;;;;5.23;1.80;;;;;;;9.30;62.20;99090.75;5102303;28;20961;-86
2022/04/08 05:57:35;;;;;;;10.17;1.97;;;;;;;9.33;61.44;99085.63;5110029;28;20400;-85
2022/04/08 06:00:01;;;;;;;7.07;2.22;;;;;;;9.39;60.71;99089.13;5098912;28;20400;-82
2022/04/08 06:02:27;;;;;;;4.50;1.40;;;;;;;9.18;60.00;99096.44;5098660;28;20415;-83
2022/04/08 06:04:52;;;;;;;6.97;1.90;;;;;;;9.08;59.66;99084.78;5107398;28;20444;-83
2022/04/08 06:07:18;;;;;;;10.63;1.77;;;;;;;9.17;59.20;99088.56;5092539;28;20406;-85
2022/04/08 06:09:43;;;;;;;7.30;2.20;;;;;;;9.23;58.51;99088.31;5094634;28;20478;-85
2022/04/08 06:12:08;;;;;;;4.43;1.27;;;;;;;9.29;58.39;99079.13;5104414;28;20408;-84
2022/04/08 06:14:34;;;;;;;6.33;1.60;;;;;;;9.37;58.76;99088.59;5103976;28;20751;-83
2022/04/08 06:16:59;;;;;;;7.07;1.88;;;;;;;9.47;58.42;99083.19;5109767;28;20759;-83
2022/04/08 06:19:24;;;;;;;4.87;1.80;;;;;;;9.36;59.17;99082.38;5109390;28;20474;-84
2022/04/08 06:21:49;;;;;;;4.53;1.40;;;;;;;9.37;59.48;99088.59;5106588;28;20412;-88
2022/04/08 06:24:15;;;;;;;5.50;1.33;;;;;;;9.44;60.12;99086.44;5091083;28;20937;-88
2022/04/08 06:26:40;;;;;;;5.30;1.33;;;;;;;9.23;59.61;99085.63;5104250;28;20408;-82
2022/04/08 06:29:06;;;;;;;5.90;1.50;;;;;;;9.15;60.36;99082.66;5104951;28;20410;-82
2022/04/08 06:31:32;;;;;;;5.43;1.58;;;;;;;9.09;60.07;99079.09;5109193;28;20876;-82
2022/04/08 06:34:01;;;;;;;5.13;1.40;;;;;;;9.13;60.80;99076.69;5092207;28;20433;-82
2022/04/08 06:36:27;;;;;;;4.28;1.10;;;;;;;8.98;60.27;99069.38;5102797;28;20392;-83
2022/04/08 06:38:53;;;;;;;2.55;0.90;;;;;;;9.10;60.48;99078.03;5096737;28;20404;-83
2022/04/08 06:41:19;;;;;;;4.67;1.20;;;;;;;9.15;60.23;99078.06;5111770;28;20564;-85
2022/04/08 06:43:44;;;;;;;3.45;1.23;;;;;;;9.03;59.80;99069.38;5104007;28;20440;-82
2022/04/08 06:46:09;;;;;;;3.93;1.20;;;;;;;9.04;60.28;99067.47;5101764;28;20380;-82
2022/04/08 06:48:34;;;;;;;3.63;0.90;;;;;;;9.18;59.61;99065.88;5096743;28;20417;-82
2022/04/08 06:51:04;;;;;;;3.63;1.27;;;;;;;9.14;60.19;99071.00;5103580;28;20396;-82
2022/04/08 06:53:29;;;;;;;3.67;0.90;;;;;;;9.08;61.36;99061.28;5106127;28;20394;-82
2022/04/08 06:55:54;;;;;;;5.90;2.23;;;;;;;9.01;62.59;99058.03;5101744;28;20407;-82
2022/04/08 06:58:19;;;;;;;5.90;1.63;;;;;;;9.07;63.15;99053.44;5106604;28;22253;-82
2022/04/08 07:00:45;;;;;;;4.67;1.40;;;;;;;9.00;63.41;99061.81;5107429;28;20388;-82
2022/04/08 07:03:11;;;;;;;5.45;1.30;;;;;;;9.12;63.76;99058.88;5104093;28;20807;-83
2022/04/08 07:05:36;;;;;;;3.70;1.15;;;;;;;9.34;63.28;99057.50;5099976;28;20923;-83
2022/04/08 07:08:01;;;;;;;3.87;1.23;;;;;;;9.42;63.00;99050.72;5099230;28;20387;-82
2022/04/08 07:10:27;;;;;;;5.00;1.30;;;;;;;9.21;64.13;99041.03;5110712;28;20447;-83
2022/04/08 07:12:52;;;;;;;2.70;0.90;;;;;;;9.16;64.04;99041.00;5095637;28;20520;-83
2022/04/08 07:15:17;;;;;;;2.83;1.23;;;;;;;9.10;65.13;99039.38;5103855;28;20554;-83
2022/04/08 07:17:43;;;;;;;5.17;1.20;;;;;;;9.19;65.39;99035.06;5111960;28;20393;-83
2022/04/08 07:20:10;;;;;;;3.90;1.50;;;;;;;9.16;64.97;99041.81;5110256;28;20469;-84
2022/04/08 07:22:36;;;;;;;2.83;1.35;;;;;;;9.14;66.07;99026.97;5092918;28;20880;-82
2022/04/08 07:25:01;;;;;;;3.87;1.10;;;;;;;9.08;67.53;99028.84;5102067;28;20411;-82
2022/04/08 07:27:27;;;;;;;3.30;1.20;;;;;;;9.02;68.35;99024.53;5099726;28;20495;-82
2022/04/08 07:29:52;;;;;;;8.25;1.73;;;;;;;8.97;69.65;99029.09;5106308;28;21038;-82
2022/04/08 07:32:23;;;;;;;2.47;1.03;;;;;;;8.96;70.13;99020.19;5095131;28;20787;-82
2022/04/08 07:34:50;;;;;;;6.30;1.20;;;;;;;9.09;70.85;99008.84;5101959;28;20405;-82
2022/04/08 07:37:26;;;;;;;2.97;1.00;;;;;;;9.01;71.13;99017.50;5108297;28;20949;-82
2022/04/08 07:39:51;;;;;;;6.03;1.70;;;;;;;8.99;71.49;99008.84;5100547;28;21063;-83
2022/04/08 07:42:16;;;;;;;3.50;1.20;;;;;;;9.07;73.09;99002.09;5097783;28;20404;-83
2022/04/08 07:44:42;;;;;;;4.72;1.35;;;;;;;8.96;73.34;99003.19;5104650;28;20381;-83
2022/04/08 07:47:08;;;;;;;7.63;1.40;;;;;;;9.01;73.80;98995.88;5101698;28;20408;-84
2022/04/08 07:49:33;;;;;;;5.68;1.30;;;;;;;8.89;74.32;98997.22;5108098;28;20483;-84
2022/04/08 07:51:58;;;;;;;4.67;1.40;;;;;;;8.78;75.49;98991.00;5109098;28;20431;-84
2022/04/08 07:54:24;;;;;;;5.27;1.37;;;;;;;8.90;75.73;98990.72;5091340;28;20749;-85
2022/04/08 07:56:49;;;;;;;3.83;1.60;;;;;;;9.01;75.58;98976.97;5099662;28;20491;-85
2022/04/08 07:59:14;;;;;;;5.03;1.40;;;;;;;9.03;75.96;98973.97;5111936;28;20388;-85
2022/04/08 08:01:39;;;;;;;4.43;1.87;;;;;;;8.97;75.98;98975.88;5100990;28;20388;-85
2022/04/08 08:04:05;;;;;;;6.60;1.87;;;;;;;9.03;76.22;98974.78;5094831;28;20939;-86
2022/04/08 08:06:30;;;;;;;6.00;1.53;;;;;;;9.01;75.55;98968.88;5101767;28;20390;-85
2022/04/08 08:08:58;;;;;;;6.27;1.77;;;;;;;9.10;76.46;98969.94;5101450;28;20557;-86
2022/04/08 08:11:23;;;;;;;3.00;1.33;;;;;;;9.27;76.78;98967.75;5099106;28;20396;-87
2022/04/08 08:13:48;;;;;;;3.93;1.67;;;;;;;9.29;75.56;98971.00;5100245;28;20389;-86
2022/04/08 08:16:14;;;;;;;4.60;2.07;;;;;;;9.35;75.49;98971.81;5099499;27;20871;-86
2022/04/08 08:18:39;;;;;;;5.10;1.90;;;;;;;9.31;74.45;98971.56;5103459;28;20416;-86
2022/04/08 08:21:04;;;;;;;4.97;1.60;;;;;;;9.27;74.50;98970.47;5109828;28;20392;-87
2022/04/08 08:23:29;;;;;;;5.43;1.53;;;;;;;9.27;74.64;98961.53;5110722;28;20417;-88
2022/04/08 08:25:55;;;;;;;4.77;2.20;;;;;;;9.09;75.22;98964.81;5111033;27;20411;-88
2022/04/08 08:28:22;;;;;;;4.80;1.77;;;;;;;9.25;74.88;98958.31;5110651;27;20517;-88
2022/04/08 08:30:47;;;;;;;5.28;2.03;;;;;;;9.04;75.85;98954.81;5107799;27;20479;-88
2022/04/08 08:33:13;;;;;;;6.93;1.40;;;;;;;9.28;74.93;98950.47;5102041;28;20488;-89
2022/04/08 08:35:38;;;;;;;4.73;1.40;;;;;;;9.42;74.88;98945.28;5109667;28;20550;-87
2022/04/08 08:38:04;;;;;;;4.47;1.33;;;;;;;9.52;75.69;98947.16;5113722;27;20423;-87
2022/04/08 08:40:32;;;;;;;7.50;1.80;;;;;;;9.65;75.47;98941.19;5114872;28;20391;-88
2022/04/08 08:42:58;;;;;;;4.05;1.40;;;;;;;9.69;74.26;98934.94;5114409;28;20412;-87
2022/04/08 08:45:28;;;;;;;3.60;0.98;;;;;;;9.62;73.95;98936.31;5108791;28;20381;-86
2022/04/08 08:47:59;;;;;;;4.45;1.10;;;;;;;9.54;73.09;98931.47;5107931;28;20408;-87
2022/04/08 08:50:24;;;;;;;2.00;1.13;;;;;;;9.59;73.64;98932.25;5113401;28;20883;-87
2022/04/08 08:52:51;;;;;;;3.70;1.40;;;;;;;9.51;72.26;98922.03;5112494;27;20408;-87
2022/04/08 08:55:19;;;;;;;2.67;0.93;;;;;;;9.45;73.30;98914.19;5112838;27;20396;-87
2022/04/08 08:57:47;;;;;;;3.77;1.73;;;;;;;9.56;73.55;98915.78;5113333;28;20871;-89
2022/04/08 09:00:16;;;;;;;4.75;1.23;;;;;;;9.63;73.34;98905.47;5105090;28;20407;-89
2022/04/08 09:02:45;;;;;;;2.08;0.82;;;;;;;9.57;72.93;98907.41;5097265;28;20493;-86
2022/04/08 09:05:15;;;;;;;4.00;1.20;;;;;;;9.64;72.00;98901.69;5110114;28;20388;-85
2022/04/08 09:07:41;;;;;;;3.45;0.90;;;;;;;9.64;71.77;98902.50;5111948;28;20399;-90
2022/04/08 09:10:07;;;;;;;1.40;0.70;;;;;;;9.53;71.54;98900.09;5113816;28;20397;-89
2022/04/08 09:12:32;;;;;;;1.42;0.93;;;;;;;9.49;71.89;98899.84;5105711;28;20485;-88
2022/04/08 09:14:59;;;;;;;4.35;0.85;;;;;;;9.47;72.54;98885.78;5117795;27;20433;-89
2022/04/08 09:17:28;;;;;;;2.88;0.70;;;;;;;9.46;73.48;98883.34;5111434;27;20477;-87
2022/04/08 09:19:56;;;;;;;3.17;0.88;;;;;;;9.47;73.29;98880.38;5100084;28;20390;-87
2022/04/08 09:22:25;;;;;;;2.58;0.88;;;;;;;9.45;73.27;98877.13;5112358;28;20401;-87
2022/04/08 09:24:51;;;;;;;2.25;1.15;;;;;;;9.47;72.86;98871.47;5114644;27;20808;-87
2022/04/08 09:27:16;;;;;;;2.30;0.82;;;;;;;9.42;73.70;98866.88;5113451;28;20447;-86
2022/04/08 09:29:44;;;;;;;1.17;0.83;;;;;;;9.51;73.72;98864.44;5093388;28;20946;-87
2022/04/08 09:32:17;;;;;;;1.58;0.80;;;;;;;9.55;74.23;98851.97;5093157;28;20394;-86
2022/04/08 09:34:42;;;;;;;1.92;0.90;;;;;;;9.57;73.98;98841.69;5122124;27;20388;-87
2022/04/08 09:37:12;;;;;;;2.72;1.23;;;;;;;9.61;74.25;98831.94;5112198;28;20480;-86
2022/04/08 09:39:57;;;;;;;2.70;0.80;;;;;;;9.66;74.02;98824.59;5099274;28;20429;-87
2022/04/08 09:42:46;;;;;;;2.33;0.70;;;;;;;9.67;73.63;98825.41;5096393;28;20496;-87
2022/04/08 09:45:13;;;;;;;2.30;0.90;;;;;;;9.68;74.16;98818.91;5109454;27;20403;-86
2022/04/08 09:47:39;;;;;;;2.27;1.07;;;;;;;9.63;74.38;98813.50;5112175;28;20485;-88
2022/04/08 09:50:05;;;;;;;4.30;1.20;;;;;;;9.55;73.72;98811.41;5110530;28;20394;-87
2022/04/08 09:52:31;;;;;;;4.05;1.05;;;;;;;9.46;74.69;98805.75;5121613;27;20821;-88
2022/04/08 09:54:59;;;;;;;4.55;2.40;;;;;;;9.48;74.89;98792.78;5114158;27;20899;-87
2022/04/08 09:57:27;;;;;;;1.42;0.77;;;;;;;9.55;75.21;98785.16;5117129;27;20392;-86
2022/04/08 09:59:57;;;;;;;1.70;0.80;;;;;;;9.67;75.16;98782.94;5104351;28;20472;-85
2022/04/08 10:02:26;;;;;;;2.75;0.80;;;;;;;9.70;74.75;98773.44;5099991;28;20404;-85
2022/04/08 10:04:54;;;;;;;2.50;0.80;;;;;;;9.78;73.80;98770.94;5101693;28;20414;-87
2022/04/08 10:07:20;;;;;;;3.45;0.52;;;;;;;9.87;73.79;98772.00;5113408;27;20478;-85
2022/04/08 10:10:04;;;;;;;2.88;1.00;;;;;;;9.82;72.47;98774.72;5097762;28;20407;-87
2022/04/08 10:12:40;;;;;;;0.95;0.60;;;;;;;9.75;70.62;98768.81;5103241;28;20404;-87
2022/04/08 10:15:14;;;;;;;2.20;0.60;;;;;;;9.74;72.53;98761.00;5116120;27;20391;-86
2022/04/08 10:17:39;;;;;;;1.85;0.63;;;;;;;9.76;72.31;98751.50;5111850;27;21708;-88
2022/04/08 10:20:19;;;;;;;2.13;1.00;;;;;;;9.74;72.24;98750.16;5105647;28;20393;-83
2022/04/08 10:22:45;;;;;;;3.63;0.95;;;;;;;9.71;72.49;98750.72;5105485;28;20407;-86
2022/04/08 10:25:15;;;;;;;2.37;0.70;;;;;;;9.63;72.88;98751.31;5107003;28;20440;-86
2022/04/08 10:27:41;;;;;;;5.03;1.07;;;;;;;9.63;73.86;98754.03;5105863;28;20963;-86
2022/04/08 10:30:22;;;;;;;2.17;0.88;;;;;;;9.67;74.70;98741.56;5108997;28;20408;-87
2022/04/08 10:33:03;;;;;;;3.40;0.80;;;;;;;9.63;71.81;98737.78;5102548;28;20419;-86
2022/04/08 10:35:28;;;;;;;4.55;2.33;;;;;;;9.55;71.51;98731.06;5096414;28;20380;-87
2022/04/08 10:38:03;;;;;;;2.78;2.33;;;;;;;9.58;72.39;98727.03;5102831;28;21222;-86
2022/04/08 10:40:36;;;;;;;4.65;3.70;;;;;;;9.58;73.10;98718.91;5104420;28;20403;-85
2022/04/08 10:43:03;;;;;;;9.85;6.40;;;;;;;9.61;74.54;98702.13;5110524;28;20419;-85
2022/04/08 10:45:29;;;;;;;2.90;1.60;;;;;;;9.61;74.87;98702.13;5092084;28;20485;-86
2022/04/08 10:47:58;;;;;;;2.07;1.33;;;;;;;9.57;74.26;98696.47;5101243;28;20427;-86
2022/04/08 10:50:33;;;;;;;2.60;1.00;;;;;;;9.59;75.17;98693.47;5104197;28;20445;-86
2022/04/08 10:53:13;;;;;;;2.30;1.23;;;;;;;9.61;74.59;98684.00;5091388;28;20403;-88
2022/04/08 10:56:07;;;;;;;4.70;0.93;;;;;;;9.48;75.48;98678.41;5106134;28;20408;-92
2022/04/08 10:58:34;;;;;;;3.70;1.65;;;;;;;9.39;74.90;98662.75;5102897;28;20510;-88
2022/04/08 11:01:00;;;;;;;2.97;1.17;;;;;;;9.45;73.86;98666.22;5110234;28;20491;-89
2022/04/08 11:03:27;;;;;;;2.42;2.20;;;;;;;9.54;73.96;98664.56;5096022;28;20495;-89
2022/04/08 11:05:53;;;;;;;1.77;1.42;;;;;;;9.64;74.60;98663.69;5102472;28;20412;-88
2022/04/08 11:08:18;;;;;;;0.85;0.63;;;;;;;9.62;74.47;98663.97;5096452;28;20384;-88
2022/04/08 11:10:43;;;;;;;0.70;0.70;;;;;;;9.62;75.09;98655.03;5092791;28;20400;-89
2022/04/08 11:13:11;;;;;;;2.50;0.80;;;;;;;9.65;73.88;98644.47;5102922;28;20573;-88
2022/04/08 11:15:38;;;;;;;2.85;1.60;;;;;;;9.69;74.96;98652.81;5103507;28;20409;-89
2022/04/08 11:18:06;;;;;;;1.70;0.80;;;;;;;9.77;75.34;98638.69;5100685;28;20439;-89
2022/04/08 11:20:34;;;;;;;3.33;2.75;;;;;;;9.79;75.19;98631.09;5103798;28;20483;-89
2022/04/08 11:23:00;;;;;;;2.50;1.33;;;;;;;9.70;75.91;98621.97;5101191;28;20424;-90
2022/04/08 11:25:30;;;;;;;4.40;1.80;;;;;;;9.66;75.52;98631.75;5103523;28;20895;-89
2022/04/08 11:28:04;;;;;;;8.85;3.65;;;;;;;9.57;75.81;98611.81;5110666;28;20408;-87
2022/04/08 11:30:32;;;;;;;1.30;1.20;;;;;;;9.44;76.14;98577.31;5093295;28;20471;-87
2022/04/08 11:32:58;;;;;;;2.88;0.80;;;;;;;9.37;76.27;98585.75;5091129;28;20386;-88
2022/04/08 11:35:28;;;;;;;2.30;1.65;;;;;;;9.38;76.35;98596.25;5103811;28;20515;-88
2022/04/08 11:37:54;;;;;;;1.80;0.63;;;;;;;9.24;75.51;98548.53;5103794;28;20487;-90
2022/04/08 11:40:19;;;;;;;2.08;1.98;;;;;;;9.21;75.82;98555.31;5103066;28;20406;-87